sensor_id;sensor_type;location;lat;lon;timestamp;P1;durP1;ratioP1;P2;durP2;ratioP2
7029;SDS011;3556;53.500;10.176;2023-04-29T00:00:01;20.10;;;13.43;;
7029;SDS011;3556;53.500;10.176;2023-04-29T00:02:29;22.50;;;15.63;;
7029;SDS011;3556;53.500;10.176;2023-04-29T00:04:55;19.50;;;14.30;;
7029;SDS011;3556;53.500;10.176;2023-04-29T00:07:20;21.87;;;15.70;;
7029;SDS011;3556;53.500;10.176;2023-04-29T00:09:46;22.00;;;16.57;;
7029;SDS011;3556;53.500;10.176;2023-04-29T00:12:11;19.23;;;15.33;;
7029;SDS011;3556;53.500;10.176;2023-04-29T00:14:37;23.77;;;15.53;;
7029;SDS011;3556;53.500;10.176;2023-04-29T00:17:02;17.63;;;15.23;;
7029;SDS011;3556;53.500;10.176;2023-04-29T00:19:28;23.63;;;16.50;;
7029;SDS011;3556;53.500;10.176;2023-04-29T00:21:54;22.23;;;15.23;;
7029;SDS011;3556;53.500;10.176;2023-04-29T00:24:20;21.93;;;16.60;;
7029;SDS011;3556;53.500;10.176;2023-04-29T00:26:45;22.50;;;15.20;;
7029;SDS011;3556;53.500;10.176;2023-04-29T00:29:11;20.27;;;15.27;;
7029;SDS011;3556;53.500;10.176;2023-04-29T00:31:36;21.77;;;15.73;;
7029;SDS011;3556;53.500;10.176;2023-04-29T00:34:03;20.40;;;15.30;;
7029;SDS011;3556;53.500;10.176;2023-04-29T00:36:29;22.43;;;15.13;;
7029;SDS011;3556;53.500;10.176;2023-04-29T00:38:55;21.37;;;15.47;;
7029;SDS011;3556;53.500;10.176;2023-04-29T00:41:22;21.40;;;15.67;;
7029;SDS011;3556;53.500;10.176;2023-04-29T00:43:48;21.50;;;15.70;;
7029;SDS011;3556;53.500;10.176;2023-04-29T00:46:14;20.17;;;16.80;;
7029;SDS011;3556;53.500;10.176;2023-04-29T00:48:39;24.50;;;17.43;;
7029;SDS011;3556;53.500;10.176;2023-04-29T00:51:05;21.13;;;15.40;;
7029;SDS011;3556;53.500;10.176;2023-04-29T00:53:32;25.77;;;15.90;;
7029;SDS011;3556;53.500;10.176;2023-04-29T00:55:58;19.33;;;15.90;;
7029;SDS011;3556;53.500;10.176;2023-04-29T00:58:25;19.87;;;15.63;;
7029;SDS011;3556;53.500;10.176;2023-04-29T01:00:58;25.03;;;16.53;;
7029;SDS011;3556;53.500;10.176;2023-04-29T01:03:24;20.97;;;16.50;;
7029;SDS011;3556;53.500;10.176;2023-04-29T01:05:53;16.53;;;14.77;;
7029;SDS011;3556;53.500;10.176;2023-04-29T01:11:21;20.13;;;15.80;;
7029;SDS011;3556;53.500;10.176;2023-04-29T01:13:58;23.17;;;16.27;;
7029;SDS011;3556;53.500;10.176;2023-04-29T01:16:29;18.77;;;15.90;;
7029;SDS011;3556;53.500;10.176;2023-04-29T01:19:02;21.30;;;16.10;;
7029;SDS011;3556;53.500;10.176;2023-04-29T01:21:46;25.27;;;16.13;;
7029;SDS011;3556;53.500;10.176;2023-04-29T01:24:15;18.60;;;15.07;;
7029;SDS011;3556;53.500;10.176;2023-04-29T01:26:45;20.73;;;15.13;;
7029;SDS011;3556;53.500;10.176;2023-04-29T01:29:39;19.60;;;16.00;;
7029;SDS011;3556;53.500;10.176;2023-04-29T01:32:16;23.03;;;17.20;;
7029;SDS011;3556;53.500;10.176;2023-04-29T01:38:20;23.67;;;16.83;;
7029;SDS011;3556;53.500;10.176;2023-04-29T01:43:29;25.90;;;17.40;;
7029;SDS011;3556;53.500;10.176;2023-04-29T01:45:56;24.53;;;17.00;;
7029;SDS011;3556;53.500;10.176;2023-04-29T01:48:23;26.50;;;19.27;;
7029;SDS011;3556;53.500;10.176;2023-04-29T01:50:49;22.67;;;18.50;;
7029;SDS011;3556;53.500;10.176;2023-04-29T01:53:15;31.40;;;20.10;;
7029;SDS011;3556;53.500;10.176;2023-04-29T01:55:41;25.00;;;17.83;;
7029;SDS011;3556;53.500;10.176;2023-04-29T01:58:08;25.87;;;19.50;;
7029;SDS011;3556;53.500;10.176;2023-04-29T02:00:34;31.17;;;19.87;;
7029;SDS011;3556;53.500;10.176;2023-04-29T02:03:02;27.30;;;19.70;;
7029;SDS011;3556;53.500;10.176;2023-04-29T02:05:27;28.30;;;20.40;;
7029;SDS011;3556;53.500;10.176;2023-04-29T02:07:57;32.43;;;21.80;;
7029;SDS011;3556;53.500;10.176;2023-04-29T02:10:23;28.27;;;20.30;;
7029;SDS011;3556;53.500;10.176;2023-04-29T02:12:49;33.53;;;21.50;;
7029;SDS011;3556;53.500;10.176;2023-04-29T02:15:15;31.87;;;21.37;;
7029;SDS011;3556;53.500;10.176;2023-04-29T02:17:41;28.90;;;20.73;;
7029;SDS011;3556;53.500;10.176;2023-04-29T02:20:07;35.17;;;23.33;;
7029;SDS011;3556;53.500;10.176;2023-04-29T02:22:34;31.37;;;22.47;;
7029;SDS011;3556;53.500;10.176;2023-04-29T02:25:00;32.60;;;21.03;;
7029;SDS011;3556;53.500;10.176;2023-04-29T02:27:25;32.43;;;22.00;;
7029;SDS011;3556;53.500;10.176;2023-04-29T02:29:51;28.20;;;21.27;;
7029;SDS011;3556;53.500;10.176;2023-04-29T02:32:17;30.63;;;21.00;;
7029;SDS011;3556;53.500;10.176;2023-04-29T02:34:44;36.00;;;21.50;;
7029;SDS011;3556;53.500;10.176;2023-04-29T02:37:10;37.03;;;21.33;;
7029;SDS011;3556;53.500;10.176;2023-04-29T02:39:36;52.57;;;21.37;;
7029;SDS011;3556;53.500;10.176;2023-04-29T02:42:02;30.30;;;21.37;;
7029;SDS011;3556;53.500;10.176;2023-04-29T02:44:28;30.90;;;21.43;;
7029;SDS011;3556;53.500;10.176;2023-04-29T02:46:55;37.63;;;20.53;;
7029;SDS011;3556;53.500;10.176;2023-04-29T02:49:22;30.40;;;21.80;;
7029;SDS011;3556;53.500;10.176;2023-04-29T02:51:47;38.70;;;21.20;;
7029;SDS011;3556;53.500;10.176;2023-04-29T02:54:15;34.30;;;21.00;;
7029;SDS011;3556;53.500;10.176;2023-04-29T02:56:41;29.00;;;20.73;;
7029;SDS011;3556;53.500;10.176;2023-04-29T02:59:08;28.57;;;19.80;;
7029;SDS011;3556;53.500;10.176;2023-04-29T03:01:34;32.17;;;22.03;;
7029;SDS011;3556;53.500;10.176;2023-04-29T03:03:59;31.00;;;21.13;;
7029;SDS011;3556;53.500;10.176;2023-04-29T03:06:25;31.73;;;21.73;;
7029;SDS011;3556;53.500;10.176;2023-04-29T03:08:51;40.43;;;21.23;;
7029;SDS011;3556;53.500;10.176;2023-04-29T03:11:17;32.53;;;20.17;;
7029;SDS011;3556;53.500;10.176;2023-04-29T03:13:44;29.40;;;19.40;;
7029;SDS011;3556;53.500;10.176;2023-04-29T03:16:10;33.37;;;21.10;;
7029;SDS011;3556;53.500;10.176;2023-04-29T03:18:38;30.07;;;19.27;;
7029;SDS011;3556;53.500;10.176;2023-04-29T03:21:03;29.27;;;20.13;;
7029;SDS011;3556;53.500;10.176;2023-04-29T03:23:29;32.87;;;20.90;;
7029;SDS011;3556;53.500;10.176;2023-04-29T03:25:55;27.13;;;19.00;;
7029;SDS011;3556;53.500;10.176;2023-04-29T03:28:20;34.83;;;21.77;;
7029;SDS011;3556;53.500;10.176;2023-04-29T03:30:46;33.90;;;21.90;;
7029;SDS011;3556;53.500;10.176;2023-04-29T03:33:12;35.63;;;21.80;;
7029;SDS011;3556;53.500;10.176;2023-04-29T03:35:37;36.57;;;20.90;;
7029;SDS011;3556;53.500;10.176;2023-04-29T03:38:03;32.47;;;20.50;;
7029;SDS011;3556;53.500;10.176;2023-04-29T03:40:29;33.70;;;20.10;;
7029;SDS011;3556;53.500;10.176;2023-04-29T03:42:55;30.43;;;21.57;;
7029;SDS011;3556;53.500;10.176;2023-04-29T03:45:20;31.30;;;20.80;;
7029;SDS011;3556;53.500;10.176;2023-04-29T03:47:46;36.20;;;23.07;;
7029;SDS011;3556;53.500;10.176;2023-04-29T03:50:12;32.83;;;22.37;;
7029;SDS011;3556;53.500;10.176;2023-04-29T03:52:37;28.47;;;19.60;;
7029;SDS011;3556;53.500;10.176;2023-04-29T03:55:03;36.10;;;21.27;;
7029;SDS011;3556;53.500;10.176;2023-04-29T03:57:29;35.07;;;21.50;;
7029;SDS011;3556;53.500;10.176;2023-04-29T03:59:55;40.70;;;22.20;;
7029;SDS011;3556;53.500;10.176;2023-04-29T04:02:20;33.70;;;22.17;;
7029;SDS011;3556;53.500;10.176;2023-04-29T04:04:46;35.67;;;21.80;;
7029;SDS011;3556;53.500;10.176;2023-04-29T04:07:12;35.70;;;21.80;;
7029;SDS011;3556;53.500;10.176;2023-04-29T04:09:37;32.50;;;22.40;;
7029;SDS011;3556;53.500;10.176;2023-04-29T04:12:03;38.83;;;22.23;;
7029;SDS011;3556;53.500;10.176;2023-04-29T04:14:29;38.43;;;22.70;;
7029;SDS011;3556;53.500;10.176;2023-04-29T04:16:55;37.63;;;22.53;;
7029;SDS011;3556;53.500;10.176;2023-04-29T04:19:21;33.50;;;21.77;;
7029;SDS011;3556;53.500;10.176;2023-04-29T04:21:46;37.30;;;22.73;;
7029;SDS011;3556;53.500;10.176;2023-04-29T04:24:12;34.60;;;22.20;;
7029;SDS011;3556;53.500;10.176;2023-04-29T04:26:38;34.27;;;21.20;;
7029;SDS011;3556;53.500;10.176;2023-04-29T04:29:03;37.33;;;22.70;;
7029;SDS011;3556;53.500;10.176;2023-04-29T04:31:29;35.97;;;22.93;;
7029;SDS011;3556;53.500;10.176;2023-04-29T04:33:55;34.57;;;21.77;;
7029;SDS011;3556;53.500;10.176;2023-04-29T04:36:21;33.77;;;21.50;;
7029;SDS011;3556;53.500;10.176;2023-04-29T04:38:47;43.63;;;23.47;;
7029;SDS011;3556;53.500;10.176;2023-04-29T04:41:13;35.17;;;22.40;;
7029;SDS011;3556;53.500;10.176;2023-04-29T04:43:38;32.97;;;21.10;;
7029;SDS011;3556;53.500;10.176;2023-04-29T04:46:09;39.23;;;22.23;;
7029;SDS011;3556;53.500;10.176;2023-04-29T04:48:35;34.37;;;21.23;;
7029;SDS011;3556;53.500;10.176;2023-04-29T04:51:10;35.60;;;20.43;;
7029;SDS011;3556;53.500;10.176;2023-04-29T04:53:36;32.73;;;20.93;;
7029;SDS011;3556;53.500;10.176;2023-04-29T04:56:03;30.63;;;20.17;;
7029;SDS011;3556;53.500;10.176;2023-04-29T04:58:29;31.40;;;19.23;;
7029;SDS011;3556;53.500;10.176;2023-04-29T05:00:56;32.47;;;20.50;;
7029;SDS011;3556;53.500;10.176;2023-04-29T05:03:22;31.20;;;21.17;;
7029;SDS011;3556;53.500;10.176;2023-04-29T05:05:59;33.93;;;21.97;;
7029;SDS011;3556;53.500;10.176;2023-04-29T05:08:25;35.33;;;21.10;;
7029;SDS011;3556;53.500;10.176;2023-04-29T05:10:51;29.37;;;19.97;;
7029;SDS011;3556;53.500;10.176;2023-04-29T05:13:17;30.33;;;20.43;;
7029;SDS011;3556;53.500;10.176;2023-04-29T05:15:43;30.13;;;21.03;;
7029;SDS011;3556;53.500;10.176;2023-04-29T05:18:09;31.07;;;20.60;;
7029;SDS011;3556;53.500;10.176;2023-04-29T05:20:35;29.77;;;21.00;;
7029;SDS011;3556;53.500;10.176;2023-04-29T05:23:01;28.57;;;19.67;;
7029;SDS011;3556;53.500;10.176;2023-04-29T05:25:27;31.57;;;21.70;;
7029;SDS011;3556;53.500;10.176;2023-04-29T05:27:53;31.60;;;20.97;;
7029;SDS011;3556;53.500;10.176;2023-04-29T05:30:19;36.00;;;22.30;;
7029;SDS011;3556;53.500;10.176;2023-04-29T05:32:45;33.90;;;21.07;;
7029;SDS011;3556;53.500;10.176;2023-04-29T05:35:11;36.83;;;21.33;;
7029;SDS011;3556;53.500;10.176;2023-04-29T05:37:36;29.40;;;21.10;;
7029;SDS011;3556;53.500;10.176;2023-04-29T05:40:02;37.33;;;21.13;;
7029;SDS011;3556;53.500;10.176;2023-04-29T05:42:28;25.37;;;18.70;;
7029;SDS011;3556;53.500;10.176;2023-04-29T05:44:54;25.80;;;18.60;;
7029;SDS011;3556;53.500;10.176;2023-04-29T05:47:20;28.17;;;18.83;;
7029;SDS011;3556;53.500;10.176;2023-04-29T05:49:46;30.77;;;19.30;;
7029;SDS011;3556;53.500;10.176;2023-04-29T05:52:12;19.20;;;15.07;;
7029;SDS011;3556;53.500;10.176;2023-04-29T05:54:38;26.43;;;19.27;;
7029;SDS011;3556;53.500;10.176;2023-04-29T05:57:03;21.00;;;16.33;;
7029;SDS011;3556;53.500;10.176;2023-04-29T05:59:29;23.30;;;16.70;;
7029;SDS011;3556;53.500;10.176;2023-04-29T06:01:56;26.70;;;16.43;;
7029;SDS011;3556;53.500;10.176;2023-04-29T06:04:22;20.50;;;14.90;;
7029;SDS011;3556;53.500;10.176;2023-04-29T06:06:49;21.03;;;14.77;;
7029;SDS011;3556;53.500;10.176;2023-04-29T06:09:16;19.83;;;12.90;;
7029;SDS011;3556;53.500;10.176;2023-04-29T06:11:42;18.93;;;14.27;;
7029;SDS011;3556;53.500;10.176;2023-04-29T06:14:09;19.60;;;14.17;;
7029;SDS011;3556;53.500;10.176;2023-04-29T06:16:35;20.33;;;13.40;;
7029;SDS011;3556;53.500;10.176;2023-04-29T06:19:00;17.77;;;12.27;;
7029;SDS011;3556;53.500;10.176;2023-04-29T06:21:26;20.10;;;13.53;;
7029;SDS011;3556;53.500;10.176;2023-04-29T06:23:52;20.87;;;12.90;;
7029;SDS011;3556;53.500;10.176;2023-04-29T06:26:18;14.20;;;12.70;;
7029;SDS011;3556;53.500;10.176;2023-04-29T06:28:45;13.97;;;11.80;;
7029;SDS011;3556;53.500;10.176;2023-04-29T06:31:11;12.77;;;11.17;;
7029;SDS011;3556;53.500;10.176;2023-04-29T06:33:37;13.50;;;11.30;;
7029;SDS011;3556;53.500;10.176;2023-04-29T06:36:02;14.00;;;10.30;;
7029;SDS011;3556;53.500;10.176;2023-04-29T06:38:28;19.33;;;10.03;;
7029;SDS011;3556;53.500;10.176;2023-04-29T06:40:54;12.80;;;9.60;;
7029;SDS011;3556;53.500;10.176;2023-04-29T06:43:24;13.53;;;9.83;;
7029;SDS011;3556;53.500;10.176;2023-04-29T06:45:54;9.27;;;8.40;;
7029;SDS011;3556;53.500;10.176;2023-04-29T06:48:20;10.53;;;9.47;;
7029;SDS011;3556;53.500;10.176;2023-04-29T06:50:52;14.17;;;8.17;;
7029;SDS011;3556;53.500;10.176;2023-04-29T06:53:19;9.50;;;8.70;;
7029;SDS011;3556;53.500;10.176;2023-04-29T06:55:45;9.77;;;8.83;;
7029;SDS011;3556;53.500;10.176;2023-04-29T06:58:14;10.20;;;8.80;;
7029;SDS011;3556;53.500;10.176;2023-04-29T07:00:43;10.87;;;8.80;;
7029;SDS011;3556;53.500;10.176;2023-04-29T07:03:13;8.90;;;8.20;;
7029;SDS011;3556;53.500;10.176;2023-04-29T07:05:39;13.57;;;8.80;;
7029;SDS011;3556;53.500;10.176;2023-04-29T07:08:09;10.10;;;7.40;;
7029;SDS011;3556;53.500;10.176;2023-04-29T07:10:36;9.00;;;8.13;;
7029;SDS011;3556;53.500;10.176;2023-04-29T07:13:02;10.20;;;8.60;;
7029;SDS011;3556;53.500;10.176;2023-04-29T07:15:28;9.23;;;8.53;;
7029;SDS011;3556;53.500;10.176;2023-04-29T07:17:54;9.63;;;8.63;;
7029;SDS011;3556;53.500;10.176;2023-04-29T07:20:21;9.67;;;8.50;;
7029;SDS011;3556;53.500;10.176;2023-04-29T07:22:46;17.07;;;9.00;;
7029;SDS011;3556;53.500;10.176;2023-04-29T07:25:12;10.70;;;8.23;;
7029;SDS011;3556;53.500;10.176;2023-04-29T07:27:38;12.80;;;8.80;;
7029;SDS011;3556;53.500;10.176;2023-04-29T07:30:04;10.40;;;8.40;;
7029;SDS011;3556;53.500;10.176;2023-04-29T07:32:30;9.30;;;7.23;;
7029;SDS011;3556;53.500;10.176;2023-04-29T07:34:57;8.30;;;7.60;;
7029;SDS011;3556;53.500;10.176;2023-04-29T07:37:23;9.23;;;7.83;;
7029;SDS011;3556;53.500;10.176;2023-04-29T07:39:49;11.00;;;8.23;;
7029;SDS011;3556;53.500;10.176;2023-04-29T07:42:14;10.37;;;7.27;;
7029;SDS011;3556;53.500;10.176;2023-04-29T07:44:40;8.23;;;7.30;;
7029;SDS011;3556;53.500;10.176;2023-04-29T07:47:06;12.53;;;7.80;;
7029;SDS011;3556;53.500;10.176;2023-04-29T07:49:31;9.40;;;7.47;;
7029;SDS011;3556;53.500;10.176;2023-04-29T07:51:57;8.73;;;7.70;;
7029;SDS011;3556;53.500;10.176;2023-04-29T07:54:23;8.97;;;8.07;;
7029;SDS011;3556;53.500;10.176;2023-04-29T07:56:48;13.73;;;7.67;;
7029;SDS011;3556;53.500;10.176;2023-04-29T07:59:14;7.57;;;6.70;;
7029;SDS011;3556;53.500;10.176;2023-04-29T08:01:40;7.93;;;7.20;;
7029;SDS011;3556;53.500;10.176;2023-04-29T08:04:06;6.03;;;5.50;;
7029;SDS011;3556;53.500;10.176;2023-04-29T08:06:32;10.50;;;6.83;;
7029;SDS011;3556;53.500;10.176;2023-04-29T08:08:58;10.60;;;7.87;;
7029;SDS011;3556;53.500;10.176;2023-04-29T08:11:24;9.70;;;6.90;;
7029;SDS011;3556;53.500;10.176;2023-04-29T08:13:51;6.90;;;5.70;;
7029;SDS011;3556;53.500;10.176;2023-04-29T08:16:16;7.60;;;7.10;;
7029;SDS011;3556;53.500;10.176;2023-04-29T08:18:42;11.17;;;7.03;;
7029;SDS011;3556;53.500;10.176;2023-04-29T08:21:08;8.60;;;7.40;;
7029;SDS011;3556;53.500;10.176;2023-04-29T08:23:36;10.70;;;7.50;;
7029;SDS011;3556;53.500;10.176;2023-04-29T08:26:02;9.07;;;7.20;;
7029;SDS011;3556;53.500;10.176;2023-04-29T08:28:28;7.27;;;6.60;;
7029;SDS011;3556;53.500;10.176;2023-04-29T08:30:53;12.57;;;7.80;;
7029;SDS011;3556;53.500;10.176;2023-04-29T08:33:19;7.60;;;6.93;;
7029;SDS011;3556;53.500;10.176;2023-04-29T08:35:46;7.70;;;6.90;;
7029;SDS011;3556;53.500;10.176;2023-04-29T08:38:12;7.53;;;7.00;;
7029;SDS011;3556;53.500;10.176;2023-04-29T08:40:41;9.50;;;8.00;;
7029;SDS011;3556;53.500;10.176;2023-04-29T08:43:08;5.80;;;5.40;;
7029;SDS011;3556;53.500;10.176;2023-04-29T08:45:34;8.60;;;7.17;;
7029;SDS011;3556;53.500;10.176;2023-04-29T08:48:04;7.17;;;6.50;;
7029;SDS011;3556;53.500;10.176;2023-04-29T08:50:31;9.90;;;7.40;;
7029;SDS011;3556;53.500;10.176;2023-04-29T08:53:08;7.00;;;6.40;;
7029;SDS011;3556;53.500;10.176;2023-04-29T08:55:35;8.20;;;7.40;;
7029;SDS011;3556;53.500;10.176;2023-04-29T08:58:08;15.33;;;8.23;;
7029;SDS011;3556;53.500;10.176;2023-04-29T09:00:35;8.50;;;6.07;;
7029;SDS011;3556;53.500;10.176;2023-04-29T09:03:03;8.90;;;7.40;;
7029;SDS011;3556;53.500;10.176;2023-04-29T09:05:54;6.70;;;6.40;;
7029;SDS011;3556;53.500;10.176;2023-04-29T09:08:23;7.97;;;7.17;;
7029;SDS011;3556;53.500;10.176;2023-04-29T09:10:50;11.37;;;6.90;;
7029;SDS011;3556;53.500;10.176;2023-04-29T09:13:24;7.23;;;5.90;;
7029;SDS011;3556;53.500;10.176;2023-04-29T09:15:51;7.70;;;6.83;;
7029;SDS011;3556;53.500;10.176;2023-04-29T09:21:15;7.00;;;6.43;;
7029;SDS011;3556;53.500;10.176;2023-04-29T09:23:46;7.27;;;6.53;;
7029;SDS011;3556;53.500;10.176;2023-04-29T09:26:13;8.30;;;7.10;;
7029;SDS011;3556;53.500;10.176;2023-04-29T09:28:39;8.40;;;7.20;;
7029;SDS011;3556;53.500;10.176;2023-04-29T09:31:08;7.10;;;6.70;;
7029;SDS011;3556;53.500;10.176;2023-04-29T09:33:53;7.63;;;7.00;;
7029;SDS011;3556;53.500;10.176;2023-04-29T09:36:43;8.00;;;7.20;;
7029;SDS011;3556;53.500;10.176;2023-04-29T09:39:14;13.27;;;6.50;;
7029;SDS011;3556;53.500;10.176;2023-04-29T09:44:19;10.03;;;7.97;;
7029;SDS011;3556;53.500;10.176;2023-04-29T09:47:02;8.00;;;7.33;;
7029;SDS011;3556;53.500;10.176;2023-04-29T09:52:03;9.73;;;8.30;;
7029;SDS011;3556;53.500;10.176;2023-04-29T09:54:34;9.40;;;8.43;;
7029;SDS011;3556;53.500;10.176;2023-04-29T09:57:00;9.63;;;8.73;;
7029;SDS011;3556;53.500;10.176;2023-04-29T09:59:29;9.10;;;8.27;;
7029;SDS011;3556;53.500;10.176;2023-04-29T10:01:56;10.63;;;8.03;;
7029;SDS011;3556;53.500;10.176;2023-04-29T10:04:23;9.23;;;8.43;;
7029;SDS011;3556;53.500;10.176;2023-04-29T10:06:51;13.20;;;9.07;;
7029;SDS011;3556;53.500;10.176;2023-04-29T10:09:18;8.77;;;8.17;;
7029;SDS011;3556;53.500;10.176;2023-04-29T10:11:45;9.13;;;8.07;;
7029;SDS011;3556;53.500;10.176;2023-04-29T10:14:20;9.90;;;7.50;;
7029;SDS011;3556;53.500;10.176;2023-04-29T10:16:49;12.83;;;8.17;;
7029;SDS011;3556;53.500;10.176;2023-04-29T10:19:37;11.77;;;8.43;;
7029;SDS011;3556;53.500;10.176;2023-04-29T10:22:06;11.60;;;8.43;;
7029;SDS011;3556;53.500;10.176;2023-04-29T10:24:43;9.27;;;8.43;;
7029;SDS011;3556;53.500;10.176;2023-04-29T10:27:11;8.93;;;8.13;;
7029;SDS011;3556;53.500;10.176;2023-04-29T10:29:38;9.47;;;8.00;;
7029;SDS011;3556;53.500;10.176;2023-04-29T10:32:09;7.73;;;7.13;;
7029;SDS011;3556;53.500;10.176;2023-04-29T10:34:36;8.30;;;7.60;;
7029;SDS011;3556;53.500;10.176;2023-04-29T10:37:07;7.30;;;6.60;;
7029;SDS011;3556;53.500;10.176;2023-04-29T10:39:35;9.17;;;8.20;;
7029;SDS011;3556;53.500;10.176;2023-04-29T10:53:02;6.47;;;6.07;;
7029;SDS011;3556;53.500;10.176;2023-04-29T10:55:28;7.10;;;6.40;;
7029;SDS011;3556;53.500;10.176;2023-04-29T10:57:55;7.17;;;6.67;;
7029;SDS011;3556;53.500;10.176;2023-04-29T11:00:22;6.77;;;6.00;;
7029;SDS011;3556;53.500;10.176;2023-04-29T11:02:54;7.57;;;5.73;;
7029;SDS011;3556;53.500;10.176;2023-04-29T11:05:31;5.67;;;5.27;;
7029;SDS011;3556;53.500;10.176;2023-04-29T11:10:51;6.50;;;6.00;;
7029;SDS011;3556;53.500;10.176;2023-04-29T11:13:21;6.63;;;6.30;;
7029;SDS011;3556;53.500;10.176;2023-04-29T11:15:52;10.50;;;6.13;;
7029;SDS011;3556;53.500;10.176;2023-04-29T11:18:27;8.10;;;7.50;;
7029;SDS011;3556;53.500;10.176;2023-04-29T11:23:40;8.80;;;7.97;;
7029;SDS011;3556;53.500;10.176;2023-04-29T11:26:06;8.10;;;7.30;;
7029;SDS011;3556;53.500;10.176;2023-04-29T11:28:32;8.23;;;7.47;;
7029;SDS011;3556;53.500;10.176;2023-04-29T11:30:59;8.43;;;7.63;;
7029;SDS011;3556;53.500;10.176;2023-04-29T11:33:25;8.63;;;7.93;;
7029;SDS011;3556;53.500;10.176;2023-04-29T11:35:52;8.30;;;7.60;;
7029;SDS011;3556;53.500;10.176;2023-04-29T11:38:28;8.40;;;7.40;;
7029;SDS011;3556;53.500;10.176;2023-04-29T11:40:54;9.03;;;8.30;;
7029;SDS011;3556;53.500;10.176;2023-04-29T11:43:21;7.83;;;7.33;;
7029;SDS011;3556;53.500;10.176;2023-04-29T11:45:48;10.40;;;8.70;;
7029;SDS011;3556;53.500;10.176;2023-04-29T11:48:19;7.67;;;7.07;;
7029;SDS011;3556;53.500;10.176;2023-04-29T11:50:46;13.03;;;7.80;;
7029;SDS011;3556;53.500;10.176;2023-04-29T11:53:14;6.50;;;6.00;;
7029;SDS011;3556;53.500;10.176;2023-04-29T11:55:43;6.83;;;6.43;;
7029;SDS011;3556;53.500;10.176;2023-04-29T11:58:09;9.33;;;8.07;;
7029;SDS011;3556;53.500;10.176;2023-04-29T12:00:35;7.80;;;7.20;;
7029;SDS011;3556;53.500;10.176;2023-04-29T12:03:06;9.07;;;6.80;;
7029;SDS011;3556;53.500;10.176;2023-04-29T12:05:37;7.57;;;7.00;;
7029;SDS011;3556;53.500;10.176;2023-04-29T12:08:05;6.97;;;6.57;;
7029;SDS011;3556;53.500;10.176;2023-04-29T12:10:31;7.57;;;7.13;;
7029;SDS011;3556;53.500;10.176;2023-04-29T12:13:00;7.80;;;7.10;;
7029;SDS011;3556;53.500;10.176;2023-04-29T12:15:27;9.50;;;7.90;;
7029;SDS011;3556;53.500;10.176;2023-04-29T12:17:53;10.97;;;7.77;;
7029;SDS011;3556;53.500;10.176;2023-04-29T12:20:19;9.00;;;8.20;;
7029;SDS011;3556;53.500;10.176;2023-04-29T12:22:45;8.07;;;7.47;;
7029;SDS011;3556;53.500;10.176;2023-04-29T12:25:11;8.37;;;7.57;;
7029;SDS011;3556;53.500;10.176;2023-04-29T12:27:38;11.30;;;7.27;;
7029;SDS011;3556;53.500;10.176;2023-04-29T12:30:06;6.50;;;6.00;;
7029;SDS011;3556;53.500;10.176;2023-04-29T12:32:33;7.03;;;5.73;;
7029;SDS011;3556;53.500;10.176;2023-04-29T12:35:00;6.67;;;6.00;;
7029;SDS011;3556;53.500;10.176;2023-04-29T12:37:26;6.33;;;5.97;;
7029;SDS011;3556;53.500;10.176;2023-04-29T12:39:53;6.23;;;5.80;;
7029;SDS011;3556;53.500;10.176;2023-04-29T12:42:19;6.83;;;6.20;;
7029;SDS011;3556;53.500;10.176;2023-04-29T12:44:45;6.07;;;5.63;;
7029;SDS011;3556;53.500;10.176;2023-04-29T12:47:14;6.17;;;5.83;;
7029;SDS011;3556;53.500;10.176;2023-04-29T12:49:43;5.53;;;5.20;;
7029;SDS011;3556;53.500;10.176;2023-04-29T12:52:10;5.20;;;4.90;;
7029;SDS011;3556;53.500;10.176;2023-04-29T12:54:36;5.93;;;5.43;;
7029;SDS011;3556;53.500;10.176;2023-04-29T12:57:05;5.83;;;5.33;;
7029;SDS011;3556;53.500;10.176;2023-04-29T12:59:30;5.93;;;5.60;;
7029;SDS011;3556;53.500;10.176;2023-04-29T13:01:56;6.00;;;5.60;;
7029;SDS011;3556;53.500;10.176;2023-04-29T13:04:21;7.60;;;5.00;;
7029;SDS011;3556;53.500;10.176;2023-04-29T13:06:47;4.73;;;4.53;;
7029;SDS011;3556;53.500;10.176;2023-04-29T13:09:13;5.73;;;5.30;;
7029;SDS011;3556;53.500;10.176;2023-04-29T13:11:38;4.67;;;4.30;;
7029;SDS011;3556;53.500;10.176;2023-04-29T13:14:04;5.83;;;5.30;;
7029;SDS011;3556;53.500;10.176;2023-04-29T13:16:31;10.23;;;3.93;;
7029;SDS011;3556;53.500;10.176;2023-04-29T13:18:57;3.80;;;3.60;;
7029;SDS011;3556;53.500;10.176;2023-04-29T13:21:23;4.47;;;4.17;;
7029;SDS011;3556;53.500;10.176;2023-04-29T13:23:49;4.93;;;4.63;;
7029;SDS011;3556;53.500;10.176;2023-04-29T13:26:15;6.90;;;4.57;;
7029;SDS011;3556;53.500;10.176;2023-04-29T13:28:45;5.23;;;4.93;;
7029;SDS011;3556;53.500;10.176;2023-04-29T13:31:11;8.50;;;5.27;;
7029;SDS011;3556;53.500;10.176;2023-04-29T13:33:36;6.87;;;5.37;;
7029;SDS011;3556;53.500;10.176;2023-04-29T13:36:02;5.13;;;4.77;;
7029;SDS011;3556;53.500;10.176;2023-04-29T13:38:28;5.87;;;5.30;;
7029;SDS011;3556;53.500;10.176;2023-04-29T13:40:54;5.20;;;4.90;;
7029;SDS011;3556;53.500;10.176;2023-04-29T13:43:20;5.80;;;5.50;;
7029;SDS011;3556;53.500;10.176;2023-04-29T13:45:46;5.67;;;5.40;;
7029;SDS011;3556;53.500;10.176;2023-04-29T13:48:11;5.10;;;4.80;;
7029;SDS011;3556;53.500;10.176;2023-04-29T13:50:37;9.97;;;4.83;;
7029;SDS011;3556;53.500;10.176;2023-04-29T13:53:05;6.80;;;5.27;;
7029;SDS011;3556;53.500;10.176;2023-04-29T13:55:31;4.80;;;4.40;;
7029;SDS011;3556;53.500;10.176;2023-04-29T13:57:59;5.43;;;4.43;;
7029;SDS011;3556;53.500;10.176;2023-04-29T14:00:25;4.70;;;4.43;;
7029;SDS011;3556;53.500;10.176;2023-04-29T14:02:51;5.93;;;4.70;;
7029;SDS011;3556;53.500;10.176;2023-04-29T14:05:16;4.50;;;4.10;;
7029;SDS011;3556;53.500;10.176;2023-04-29T14:07:42;4.00;;;3.90;;
7029;SDS011;3556;53.500;10.176;2023-04-29T14:10:08;3.60;;;3.40;;
7029;SDS011;3556;53.500;10.176;2023-04-29T14:12:33;3.10;;;2.83;;
7029;SDS011;3556;53.500;10.176;2023-04-29T14:14:59;4.80;;;2.63;;
7029;SDS011;3556;53.500;10.176;2023-04-29T14:17:24;5.00;;;2.60;;
7029;SDS011;3556;53.500;10.176;2023-04-29T14:19:51;3.67;;;2.83;;
7029;SDS011;3556;53.500;10.176;2023-04-29T14:22:17;4.70;;;2.37;;
7029;SDS011;3556;53.500;10.176;2023-04-29T14:24:42;5.63;;;2.40;;
7029;SDS011;3556;53.500;10.176;2023-04-29T14:27:08;2.30;;;2.20;;
7029;SDS011;3556;53.500;10.176;2023-04-29T14:29:33;2.40;;;2.30;;
7029;SDS011;3556;53.500;10.176;2023-04-29T14:31:59;7.73;;;2.03;;
7029;SDS011;3556;53.500;10.176;2023-04-29T14:34:24;3.33;;;2.30;;
7029;SDS011;3556;53.500;10.176;2023-04-29T14:36:50;2.20;;;2.10;;
7029;SDS011;3556;53.500;10.176;2023-04-29T14:39:16;2.80;;;2.60;;
7029;SDS011;3556;53.500;10.176;2023-04-29T14:41:42;2.27;;;2.17;;
7029;SDS011;3556;53.500;10.176;2023-04-29T14:44:08;2.47;;;2.27;;
7029;SDS011;3556;53.500;10.176;2023-04-29T14:46:33;2.50;;;2.40;;
7029;SDS011;3556;53.500;10.176;2023-04-29T14:48:59;3.00;;;2.53;;
7029;SDS011;3556;53.500;10.176;2023-04-29T14:51:25;2.87;;;2.50;;
7029;SDS011;3556;53.500;10.176;2023-04-29T14:53:52;2.43;;;2.23;;
7029;SDS011;3556;53.500;10.176;2023-04-29T14:56:17;2.73;;;2.20;;
7029;SDS011;3556;53.500;10.176;2023-04-29T14:58:43;2.93;;;2.63;;
7029;SDS011;3556;53.500;10.176;2023-04-29T15:01:09;3.57;;;3.27;;
7029;SDS011;3556;53.500;10.176;2023-04-29T15:03:34;7.83;;;2.50;;
7029;SDS011;3556;53.500;10.176;2023-04-29T15:06:00;3.77;;;2.70;;
7029;SDS011;3556;53.500;10.176;2023-04-29T15:08:28;2.80;;;2.70;;
7029;SDS011;3556;53.500;10.176;2023-04-29T15:10:54;2.70;;;2.40;;
7029;SDS011;3556;53.500;10.176;2023-04-29T15:13:19;2.20;;;2.10;;
7029;SDS011;3556;53.500;10.176;2023-04-29T15:15:45;3.47;;;2.07;;
7029;SDS011;3556;53.500;10.176;2023-04-29T15:18:11;2.00;;;1.90;;
7029;SDS011;3556;53.500;10.176;2023-04-29T15:20:37;2.10;;;2.00;;